Terminal Aerodrome Forecast
Issued by NWS

Home | Current Version | Previous Version | Text Only | Print | Product List | Glossary On
Versions: 1 2 3 4 5 6 7 8 9 10 11 12 13 14 15 16 17 18 19 20 21 22 23 24 25 26 27 28 29 30 31 32
448
FTUS44 KFWD 040042 AAB
TAFFTW
TAF AMD
KFTW 040042Z 0401/0424 01005KT P6SM VCSH BKN080
      TEMPO 0401/0403 33010G20KT -RA
     FM040400 27005KT P6SM SCT060
     FM041600 33014KT P6SM SKC=

USA.gov is the U.S. government's official web portal to all federal, state and local government web resources and services.